sensor_id;sensor_type;location;lat;lon;timestamp;temperature;humidity
76857;DHT22;66179;44.686;37.628;2023-04-09T00:01:47;11.59;90.76
76857;DHT22;66179;44.686;37.628;2023-04-09T00:04:19;11.58;91.02
76857;DHT22;66179;44.686;37.628;2023-04-09T00:06:52;11.52;90.78
76857;DHT22;66179;44.686;37.628;2023-04-09T00:09:24;11.48;89.98
76857;DHT22;66179;44.686;37.628;2023-04-09T00:11:56;11.40;88.84
76857;DHT22;66179;44.686;37.628;2023-04-09T00:14:28;11.32;88.99
76857;DHT22;66179;44.686;37.628;2023-04-09T00:17:00;11.32;89.09
76857;DHT22;66179;44.686;37.628;2023-04-09T00:19:32;11.30;88.57
76857;DHT22;66179;44.686;37.628;2023-04-09T00:22:04;11.30;88.99
76857;DHT22;66179;44.686;37.628;2023-04-09T00:24:36;11.29;89.27
76857;DHT22;66179;44.686;37.628;2023-04-09T00:27:08;11.28;89.54
76857;DHT22;66179;44.686;37.628;2023-04-09T00:29:39;11.28;89.76
76857;DHT22;66179;44.686;37.628;2023-04-09T00:32:12;11.29;89.70
76857;DHT22;66179;44.686;37.628;2023-04-09T00:34:43;11.28;89.99
76857;DHT22;66179;44.686;37.628;2023-04-09T00:37:15;11.28;89.95
76857;DHT22;66179;44.686;37.628;2023-04-09T00:39:47;11.26;89.94
76857;DHT22;66179;44.686;37.628;2023-04-09T00:42:19;11.25;89.91
76857;DHT22;66179;44.686;37.628;2023-04-09T00:44:52;11.26;90.04
76857;DHT22;66179;44.686;37.628;2023-04-09T00:47:25;11.18;89.92
76857;DHT22;66179;44.686;37.628;2023-04-09T00:50:00;11.15;89.61
76857;DHT22;66179;44.686;37.628;2023-04-09T00:52:32;11.18;89.30
76857;DHT22;66179;44.686;37.628;2023-04-09T00:55:04;11.14;88.25
76857;DHT22;66179;44.686;37.628;2023-04-09T00:57:36;11.16;88.12
76857;DHT22;66179;44.686;37.628;2023-04-09T01:00:09;11.18;86.64
76857;DHT22;66179;44.686;37.628;2023-04-09T01:02:42;11.16;86.16
76857;DHT22;66179;44.686;37.628;2023-04-09T01:05:14;11.15;85.71
76857;DHT22;66179;44.686;37.628;2023-04-09T01:14:29;11.15;84.16
76857;DHT22;66179;44.686;37.628;2023-04-09T01:17:03;11.11;84.20
76857;DHT22;66179;44.686;37.628;2023-04-09T01:19:43;11.07;84.55
76857;DHT22;66179;44.686;37.628;2023-04-09T01:28:32;10.99;84.31
76857;DHT22;66179;44.686;37.628;2023-04-09T01:31:11;10.94;84.34
76857;DHT22;66179;44.686;37.628;2023-04-09T01:33:46;10.99;83.99
76857;DHT22;66179;44.686;37.628;2023-04-09T01:36:19;11.03;83.39
76857;DHT22;66179;44.686;37.628;2023-04-09T01:38:52;11.05;82.81
76857;DHT22;66179;44.686;37.628;2023-04-09T01:41:25;11.07;83.36
76857;DHT22;66179;44.686;37.628;2023-04-09T01:43:59;11.03;82.56
76857;DHT22;66179;44.686;37.628;2023-04-09T01:46:33;11.05;82.83
76857;DHT22;66179;44.686;37.628;2023-04-09T01:49:06;11.08;83.34
76857;DHT22;66179;44.686;37.628;2023-04-09T01:51:38;11.09;82.62
76857;DHT22;66179;44.686;37.628;2023-04-09T01:54:10;11.07;82.33
76857;DHT22;66179;44.686;37.628;2023-04-09T01:56:44;11.07;82.01
76857;DHT22;66179;44.686;37.628;2023-04-09T01:59:16;11.10;82.37
76857;DHT22;66179;44.686;37.628;2023-04-09T02:01:57;11.13;82.95
76857;DHT22;66179;44.686;37.628;2023-04-09T02:04:32;11.14;82.78
76857;DHT22;66179;44.686;37.628;2023-04-09T02:10:00;11.04;84.36
76857;DHT22;66179;44.686;37.628;2023-04-09T02:12:35;11.10;84.32
76857;DHT22;66179;44.686;37.628;2023-04-09T02:15:07;11.10;82.58
76857;DHT22;66179;44.686;37.628;2023-04-09T02:17:39;11.09;82.30
76857;DHT22;66179;44.686;37.628;2023-04-09T02:20:16;11.04;82.41
76857;DHT22;66179;44.686;37.628;2023-04-09T02:22:48;11.11;82.24
76857;DHT22;66179;44.686;37.628;2023-04-09T02:25:22;11.10;81.09
76857;DHT22;66179;44.686;37.628;2023-04-09T02:27:55;11.13;81.59
76857;DHT22;66179;44.686;37.628;2023-04-09T02:30:27;11.16;81.53
76857;DHT22;66179;44.686;37.628;2023-04-09T02:32:58;11.16;81.88
76857;DHT22;66179;44.686;37.628;2023-04-09T02:35:30;11.18;82.19
76857;DHT22;66179;44.686;37.628;2023-04-09T02:38:02;11.16;81.49
76857;DHT22;66179;44.686;37.628;2023-04-09T02:40:34;11.14;81.46
76857;DHT22;66179;44.686;37.628;2023-04-09T02:43:07;11.13;81.58
76857;DHT22;66179;44.686;37.628;2023-04-09T02:45:38;11.10;81.88
76857;DHT22;66179;44.686;37.628;2023-04-09T02:48:10;11.10;81.50
76857;DHT22;66179;44.686;37.628;2023-04-09T02:50:42;11.14;81.60
76857;DHT22;66179;44.686;37.628;2023-04-09T02:53:14;11.18;81.65
76857;DHT22;66179;44.686;37.628;2023-04-09T02:55:46;11.18;81.97
76857;DHT22;66179;44.686;37.628;2023-04-09T02:58:18;11.16;81.04
76857;DHT22;66179;44.686;37.628;2023-04-09T03:00:50;11.09;80.80
76857;DHT22;66179;44.686;37.628;2023-04-09T03:03:22;11.07;80.80
76857;DHT22;66179;44.686;37.628;2023-04-09T03:05:54;11.14;81.82
76857;DHT22;66179;44.686;37.628;2023-04-09T03:08:26;11.02;80.45
76857;DHT22;66179;44.686;37.628;2023-04-09T03:10:57;11.01;80.84
76857;DHT22;66179;44.686;37.628;2023-04-09T03:13:29;10.99;81.16
76857;DHT22;66179;44.686;37.628;2023-04-09T03:16:01;11.02;81.25
76857;DHT22;66179;44.686;37.628;2023-04-09T03:18:33;10.99;81.37
76857;DHT22;66179;44.686;37.628;2023-04-09T03:21:06;11.05;79.87
76857;DHT22;66179;44.686;37.628;2023-04-09T03:23:39;11.08;79.96
76857;DHT22;66179;44.686;37.628;2023-04-09T03:26:12;11.16;79.73
76857;DHT22;66179;44.686;37.628;2023-04-09T03:28:51;11.16;79.07
76857;DHT22;66179;44.686;37.628;2023-04-09T03:31:23;11.16;78.03
76857;DHT22;66179;44.686;37.628;2023-04-09T03:33:55;11.16;78.64
76857;DHT22;66179;44.686;37.628;2023-04-09T03:36:27;11.16;79.10
76857;DHT22;66179;44.686;37.628;2023-04-09T03:39:06;11.17;79.48
76857;DHT22;66179;44.686;37.628;2023-04-09T03:41:44;11.15;78.74
76857;DHT22;66179;44.686;37.628;2023-04-09T03:44:19;11.16;78.78
76857;DHT22;66179;44.686;37.628;2023-04-09T03:47:26;11.18;79.40
76857;DHT22;66179;44.686;37.628;2023-04-09T03:50:01;11.16;79.82
76857;DHT22;66179;44.686;37.628;2023-04-09T03:52:44;11.17;80.17
76857;DHT22;66179;44.686;37.628;2023-04-09T03:55:16;11.23;79.91
76857;DHT22;66179;44.686;37.628;2023-04-09T03:57:48;11.25;80.04
76857;DHT22;66179;44.686;37.628;2023-04-09T04:00:23;11.29;80.27
76857;DHT22;66179;44.686;37.628;2023-04-09T04:02:55;11.31;80.37
76857;DHT22;66179;44.686;37.628;2023-04-09T04:05:47;11.32;80.11
76857;DHT22;66179;44.686;37.628;2023-04-09T04:08:21;11.33;80.62
76857;DHT22;66179;44.686;37.628;2023-04-09T04:10:53;11.39;80.91
76857;DHT22;66179;44.686;37.628;2023-04-09T04:13:26;11.39;81.24
76857;DHT22;66179;44.686;37.628;2023-04-09T04:16:01;11.44;81.33
76857;DHT22;66179;44.686;37.628;2023-04-09T04:18:34;11.47;80.68
76857;DHT22;66179;44.686;37.628;2023-04-09T04:21:12;11.48;80.50
76857;DHT22;66179;44.686;37.628;2023-04-09T04:23:47;11.45;80.46
76857;DHT22;66179;44.686;37.628;2023-04-09T04:26:26;11.46;80.43
76857;DHT22;66179;44.686;37.628;2023-04-09T04:28:58;11.47;80.61
76857;DHT22;66179;44.686;37.628;2023-04-09T04:31:48;11.59;80.44
76857;DHT22;66179;44.686;37.628;2023-04-09T04:34:23;11.61;79.26
76857;DHT22;66179;44.686;37.628;2023-04-09T04:37:03;11.63;79.25
76857;DHT22;66179;44.686;37.628;2023-04-09T04:39:38;11.64;78.48
76857;DHT22;66179;44.686;37.628;2023-04-09T04:42:20;11.63;78.14
76857;DHT22;66179;44.686;37.628;2023-04-09T04:44:52;11.72;77.97
76857;DHT22;66179;44.686;37.628;2023-04-09T04:47:42;11.81;77.11
76857;DHT22;66179;44.686;37.628;2023-04-09T04:50:14;11.89;76.85
76857;DHT22;66179;44.686;37.628;2023-04-09T04:53:18;11.98;76.78
76857;DHT22;66179;44.686;37.628;2023-04-09T04:55:54;12.03;75.66
76857;DHT22;66179;44.686;37.628;2023-04-09T04:58:29;12.16;76.24
76857;DHT22;66179;44.686;37.628;2023-04-09T05:01:05;12.19;76.33
76857;DHT22;66179;44.686;37.628;2023-04-09T05:03:37;12.29;74.79
76857;DHT22;66179;44.686;37.628;2023-04-09T05:06:27;12.27;74.67
76857;DHT22;66179;44.686;37.628;2023-04-09T05:09:02;12.29;74.93
76857;DHT22;66179;44.686;37.628;2023-04-09T05:11:42;12.26;75.40
76857;DHT22;66179;44.686;37.628;2023-04-09T05:14:20;12.33;74.89
76857;DHT22;66179;44.686;37.628;2023-04-09T05:16:53;12.26;74.48
76857;DHT22;66179;44.686;37.628;2023-04-09T05:19:29;12.28;74.79
76857;DHT22;66179;44.686;37.628;2023-04-09T05:22:05;12.38;74.12
76857;DHT22;66179;44.686;37.628;2023-04-09T05:24:37;12.55;74.68
76857;DHT22;66179;44.686;37.628;2023-04-09T05:27:10;12.49;74.89
76857;DHT22;66179;44.686;37.628;2023-04-09T05:29:42;12.58;73.34
76857;DHT22;66179;44.686;37.628;2023-04-09T05:32:14;12.61;73.28
76857;DHT22;66179;44.686;37.628;2023-04-09T05:34:46;12.66;73.71
76857;DHT22;66179;44.686;37.628;2023-04-09T05:37:18;12.72;73.76
76857;DHT22;66179;44.686;37.628;2023-04-09T05:39:55;12.78;74.80
76857;DHT22;66179;44.686;37.628;2023-04-09T05:42:27;12.94;74.95
76857;DHT22;66179;44.686;37.628;2023-04-09T05:45:22;12.99;74.08
76857;DHT22;66179;44.686;37.628;2023-04-09T05:47:56;12.87;74.22
76857;DHT22;66179;44.686;37.628;2023-04-09T05:50:28;12.78;75.50
76857;DHT22;66179;44.686;37.628;2023-04-09T05:53:00;12.88;75.01
76857;DHT22;66179;44.686;37.628;2023-04-09T05:55:46;13.06;74.58
76857;DHT22;66179;44.686;37.628;2023-04-09T05:58:20;13.23;73.19
76857;DHT22;66179;44.686;37.628;2023-04-09T06:00:52;13.23;72.32
76857;DHT22;66179;44.686;37.628;2023-04-09T06:03:24;13.10;73.68
76857;DHT22;66179;44.686;37.628;2023-04-09T06:05:56;13.19;72.96
76857;DHT22;66179;44.686;37.628;2023-04-09T06:08:28;13.25;71.71
76857;DHT22;66179;44.686;37.628;2023-04-09T06:11:00;13.24;72.77
76857;DHT22;66179;44.686;37.628;2023-04-09T06:13:31;13.18;70.64
76857;DHT22;66179;44.686;37.628;2023-04-09T06:16:07;13.15;71.08
76857;DHT22;66179;44.686;37.628;2023-04-09T06:18:40;13.12;71.36
76857;DHT22;66179;44.686;37.628;2023-04-09T06:21:12;13.14;69.88
76857;DHT22;66179;44.686;37.628;2023-04-09T06:23:44;13.03;70.25
76857;DHT22;66179;44.686;37.628;2023-04-09T06:26:16;13.01;71.90
76857;DHT22;66179;44.686;37.628;2023-04-09T06:28:48;13.01;72.63
76857;DHT22;66179;44.686;37.628;2023-04-09T06:31:20;13.12;70.87
76857;DHT22;66179;44.686;37.628;2023-04-09T06:33:52;13.08;70.66
76857;DHT22;66179;44.686;37.628;2023-04-09T06:36:24;13.22;69.25
76857;DHT22;66179;44.686;37.628;2023-04-09T06:38:57;13.32;69.63
76857;DHT22;66179;44.686;37.628;2023-04-09T06:41:29;13.25;70.16
76857;DHT22;66179;44.686;37.628;2023-04-09T06:44:01;13.15;69.38
76857;DHT22;66179;44.686;37.628;2023-04-09T06:46:33;13.16;70.41
76857;DHT22;66179;44.686;37.628;2023-04-09T06:49:05;13.21;70.27
76857;DHT22;66179;44.686;37.628;2023-04-09T06:51:36;13.22;71.35
76857;DHT22;66179;44.686;37.628;2023-04-09T06:54:08;13.48;71.66
76857;DHT22;66179;44.686;37.628;2023-04-09T06:56:40;13.45;70.90
76857;DHT22;66179;44.686;37.628;2023-04-09T06:59:11;13.51;69.90
76857;DHT22;66179;44.686;37.628;2023-04-09T07:01:43;13.58;69.44
76857;DHT22;66179;44.686;37.628;2023-04-09T07:04:15;13.49;68.49
76857;DHT22;66179;44.686;37.628;2023-04-09T07:06:47;13.46;69.46
76857;DHT22;66179;44.686;37.628;2023-04-09T07:09:19;13.39;68.58
76857;DHT22;66179;44.686;37.628;2023-04-09T07:11:51;13.46;70.35
76857;DHT22;66179;44.686;37.628;2023-04-09T07:14:23;13.45;68.94
76857;DHT22;66179;44.686;37.628;2023-04-09T07:16:54;13.45;69.53
76857;DHT22;66179;44.686;37.628;2023-04-09T07:19:26;13.51;69.34
76857;DHT22;66179;44.686;37.628;2023-04-09T07:21:58;13.52;69.93
76857;DHT22;66179;44.686;37.628;2023-04-09T07:24:29;13.54;69.07
76857;DHT22;66179;44.686;37.628;2023-04-09T07:27:04;13.53;69.65
76857;DHT22;66179;44.686;37.628;2023-04-09T07:29:36;13.66;69.03
76857;DHT22;66179;44.686;37.628;2023-04-09T07:32:08;13.60;69.20
76857;DHT22;66179;44.686;37.628;2023-04-09T07:34:40;13.66;68.24
76857;DHT22;66179;44.686;37.628;2023-04-09T07:37:11;13.76;70.30
76857;DHT22;66179;44.686;37.628;2023-04-09T07:39:43;13.73;68.47
76857;DHT22;66179;44.686;37.628;2023-04-09T07:42:15;13.89;67.60
76857;DHT22;66179;44.686;37.628;2023-04-09T07:44:47;13.89;67.59
76857;DHT22;66179;44.686;37.628;2023-04-09T07:47:21;14.09;66.32
76857;DHT22;66179;44.686;37.628;2023-04-09T07:49:52;14.14;66.50
76857;DHT22;66179;44.686;37.628;2023-04-09T07:52:24;14.11;65.68
76857;DHT22;66179;44.686;37.628;2023-04-09T07:54:56;14.15;66.83
76857;DHT22;66179;44.686;37.628;2023-04-09T07:57:30;14.38;64.72
76857;DHT22;66179;44.686;37.628;2023-04-09T08:00:04;14.43;64.79
76857;DHT22;66179;44.686;37.628;2023-04-09T08:02:44;14.53;69.13
76857;DHT22;66179;44.686;37.628;2023-04-09T08:05:16;14.66;65.83
76857;DHT22;66179;44.686;37.628;2023-04-09T08:07:49;14.80;64.52
76857;DHT22;66179;44.686;37.628;2023-04-09T08:10:21;14.69;63.74
76857;DHT22;66179;44.686;37.628;2023-04-09T08:12:53;14.79;65.92
76857;DHT22;66179;44.686;37.628;2023-04-09T08:15:25;14.69;66.14
76857;DHT22;66179;44.686;37.628;2023-04-09T08:17:57;14.79;66.06
76857;DHT22;66179;44.686;37.628;2023-04-09T08:20:29;14.87;65.04
76857;DHT22;66179;44.686;37.628;2023-04-09T08:23:03;14.81;65.53
76857;DHT22;66179;44.686;37.628;2023-04-09T08:25:35;14.92;64.18
76857;DHT22;66179;44.686;37.628;2023-04-09T08:28:06;14.92;64.18
76857;DHT22;66179;44.686;37.628;2023-04-09T08:30:38;15.04;64.40
76857;DHT22;66179;44.686;37.628;2023-04-09T08:33:10;15.22;63.86
76857;DHT22;66179;44.686;37.628;2023-04-09T08:35:42;15.19;62.92
76857;DHT22;66179;44.686;37.628;2023-04-09T08:38:14;15.16;63.69
76857;DHT22;66179;44.686;37.628;2023-04-09T08:40:46;14.97;63.29
76857;DHT22;66179;44.686;37.628;2023-04-09T08:43:21;15.02;63.23
76857;DHT22;66179;44.686;37.628;2023-04-09T08:45:55;15.03;62.98
76857;DHT22;66179;44.686;37.628;2023-04-09T08:48:28;15.07;65.53
76857;DHT22;66179;44.686;37.628;2023-04-09T08:51:00;15.09;63.86
76857;DHT22;66179;44.686;37.628;2023-04-09T08:53:32;15.19;63.93
76857;DHT22;66179;44.686;37.628;2023-04-09T08:56:05;15.24;62.47
76857;DHT22;66179;44.686;37.628;2023-04-09T08:58:42;15.38;63.27
76857;DHT22;66179;44.686;37.628;2023-04-09T09:01:25;15.12;62.82
76857;DHT22;66179;44.686;37.628;2023-04-09T09:04:00;15.24;64.51
76857;DHT22;66179;44.686;37.628;2023-04-09T09:06:34;15.54;64.01
76857;DHT22;66179;44.686;37.628;2023-04-09T09:09:13;15.69;61.13
76857;DHT22;66179;44.686;37.628;2023-04-09T09:11:47;15.63;61.64
76857;DHT22;66179;44.686;37.628;2023-04-09T09:14:20;15.75;61.75
76857;DHT22;66179;44.686;37.628;2023-04-09T09:19:30;16.13;62.80
76857;DHT22;66179;44.686;37.628;2023-04-09T09:22:05;16.10;61.11
76857;DHT22;66179;44.686;37.628;2023-04-09T09:24:51;16.37;61.62
76857;DHT22;66179;44.686;37.628;2023-04-09T09:27:37;16.42;61.76
76857;DHT22;66179;44.686;37.628;2023-04-09T09:30:20;16.55;59.19
76857;DHT22;66179;44.686;37.628;2023-04-09T09:32:53;16.56;59.38
76857;DHT22;66179;44.686;37.628;2023-04-09T09:35:30;16.84;58.48
76857;DHT22;66179;44.686;37.628;2023-04-09T09:38:02;16.85;57.85
76857;DHT22;66179;44.686;37.628;2023-04-09T09:40:34;17.10;59.22
76857;DHT22;66179;44.686;37.628;2023-04-09T09:43:06;17.08;56.29
76857;DHT22;66179;44.686;37.628;2023-04-09T09:45:39;16.67;57.61
76857;DHT22;66179;44.686;37.628;2023-04-09T09:48:12;16.77;59.07
76857;DHT22;66179;44.686;37.628;2023-04-09T09:50:46;17.02;58.40
76857;DHT22;66179;44.686;37.628;2023-04-09T09:53:21;17.21;58.99
76857;DHT22;66179;44.686;37.628;2023-04-09T09:55:56;17.33;58.28
76857;DHT22;66179;44.686;37.628;2023-04-09T09:58:35;17.18;57.55
76857;DHT22;66179;44.686;37.628;2023-04-09T10:01:11;17.59;58.41
76857;DHT22;66179;44.686;37.628;2023-04-09T10:03:44;17.66;55.51
76857;DHT22;66179;44.686;37.628;2023-04-09T10:06:17;17.53;56.32
76857;DHT22;66179;44.686;37.628;2023-04-09T10:08:49;17.77;56.33
76857;DHT22;66179;44.686;37.628;2023-04-09T10:11:23;17.63;56.94
76857;DHT22;66179;44.686;37.628;2023-04-09T10:13:56;17.77;56.30
76857;DHT22;66179;44.686;37.628;2023-04-09T10:16:31;17.77;55.90
76857;DHT22;66179;44.686;37.628;2023-04-09T10:19:04;17.76;57.61
76857;DHT22;66179;44.686;37.628;2023-04-09T10:24:12;17.93;55.49
76857;DHT22;66179;44.686;37.628;2023-04-09T10:26:46;18.27;55.12
76857;DHT22;66179;44.686;37.628;2023-04-09T10:29:26;18.24;54.31
76857;DHT22;66179;44.686;37.628;2023-04-09T10:32:06;18.35;55.46
76857;DHT22;66179;44.686;37.628;2023-04-09T10:34:42;17.95;55.94
76857;DHT22;66179;44.686;37.628;2023-04-09T10:37:16;17.90;55.60
76857;DHT22;66179;44.686;37.628;2023-04-09T10:39:52;17.95;55.37
76857;DHT22;66179;44.686;37.628;2023-04-09T10:42:38;17.63;56.40
76857;DHT22;66179;44.686;37.628;2023-04-09T10:45:14;17.69;56.45
76857;DHT22;66179;44.686;37.628;2023-04-09T10:47:49;18.08;57.20
76857;DHT22;66179;44.686;37.628;2023-04-09T10:50:24;18.40;56.42
76857;DHT22;66179;44.686;37.628;2023-04-09T10:52:58;18.15;55.63
76857;DHT22;66179;44.686;37.628;2023-04-09T10:55:40;18.29;54.95
76857;DHT22;66179;44.686;37.628;2023-04-09T10:58:12;18.33;54.97
76857;DHT22;66179;44.686;37.628;2023-04-09T11:00:48;18.41;54.92
76857;DHT22;66179;44.686;37.628;2023-04-09T11:06:03;18.13;54.06
76857;DHT22;66179;44.686;37.628;2023-04-09T11:08:37;18.18;55.71
76857;DHT22;66179;44.686;37.628;2023-04-09T11:11:09;18.34;54.78
76857;DHT22;66179;44.686;37.628;2023-04-09T11:13:41;18.42;52.93
76857;DHT22;66179;44.686;37.628;2023-04-09T11:16:13;18.15;53.65
76857;DHT22;66179;44.686;37.628;2023-04-09T11:18:46;18.19;55.66
76857;DHT22;66179;44.686;37.628;2023-04-09T11:21:18;18.27;53.63
76857;DHT22;66179;44.686;37.628;2023-04-09T11:23:51;18.53;54.77
76857;DHT22;66179;44.686;37.628;2023-04-09T11:26:33;18.77;53.68
76857;DHT22;66179;44.686;37.628;2023-04-09T11:29:06;18.52;54.65
76857;DHT22;66179;44.686;37.628;2023-04-09T11:31:44;18.43;53.49
76857;DHT22;66179;44.686;37.628;2023-04-09T11:34:16;18.69;54.10
76857;DHT22;66179;44.686;37.628;2023-04-09T11:36:48;18.77;54.01
76857;DHT22;66179;44.686;37.628;2023-04-09T11:39:20;19.02;53.14
76857;DHT22;66179;44.686;37.628;2023-04-09T11:41:52;19.16;51.02
76857;DHT22;66179;44.686;37.628;2023-04-09T11:44:24;19.07;52.89
76857;DHT22;66179;44.686;37.628;2023-04-09T11:46:57;18.85;52.89
76857;DHT22;66179;44.686;37.628;2023-04-09T11:49:29;18.84;53.68
76857;DHT22;66179;44.686;37.628;2023-04-09T11:52:01;19.02;52.27
76857;DHT22;66179;44.686;37.628;2023-04-09T11:54:34;18.94;52.99
76857;DHT22;66179;44.686;37.628;2023-04-09T11:57:06;18.69;53.88
76857;DHT22;66179;44.686;37.628;2023-04-09T11:59:38;18.66;53.68
76857;DHT22;66179;44.686;37.628;2023-04-09T12:02:11;18.28;54.19
76857;DHT22;66179;44.686;37.628;2023-04-09T12:04:49;18.19;54.63
76857;DHT22;66179;44.686;37.628;2023-04-09T12:07:21;18.08;55.77
76857;DHT22;66179;44.686;37.628;2023-04-09T12:09:53;18.35;54.18
76857;DHT22;66179;44.686;37.628;2023-04-09T12:12:25;18.50;52.93
76857;DHT22;66179;44.686;37.628;2023-04-09T12:14:57;18.09;53.20
76857;DHT22;66179;44.686;37.628;2023-04-09T12:17:30;18.12;55.24
76857;DHT22;66179;44.686;37.628;2023-04-09T12:20:05;18.52;55.10
76857;DHT22;66179;44.686;37.628;2023-04-09T12:22:38;18.79;54.24
76857;DHT22;66179;44.686;37.628;2023-04-09T12:25:11;18.89;53.65
76857;DHT22;66179;44.686;37.628;2023-04-09T12:27:43;18.71;55.30
76857;DHT22;66179;44.686;37.628;2023-04-09T12:30:15;18.97;53.68
76857;DHT22;66179;44.686;37.628;2023-04-09T12:32:47;18.81;52.59
76857;DHT22;66179;44.686;37.628;2023-04-09T12:35:20;18.76;53.36
76857;DHT22;66179;44.686;37.628;2023-04-09T12:37:52;18.82;53.79
76857;DHT22;66179;44.686;37.628;2023-04-09T12:40:24;18.92;53.59
76857;DHT22;66179;44.686;37.628;2023-04-09T12:42:56;19.11;52.31
76857;DHT22;66179;44.686;37.628;2023-04-09T12:45:28;19.08;52.27
76857;DHT22;66179;44.686;37.628;2023-04-09T12:48:00;18.95;52.20
76857;DHT22;66179;44.686;37.628;2023-04-09T12:50:32;18.92;53.29
76857;DHT22;66179;44.686;37.628;2023-04-09T12:53:04;19.11;53.40
76857;DHT22;66179;44.686;37.628;2023-04-09T12:55:36;19.15;52.43
76857;DHT22;66179;44.686;37.628;2023-04-09T12:58:07;19.12;52.95
76857;DHT22;66179;44.686;37.628;2023-04-09T13:00:40;19.01;53.49
76857;DHT22;66179;44.686;37.628;2023-04-09T13:03:12;18.98;52.82
76857;DHT22;66179;44.686;37.628;2023-04-09T13:05:47;18.89;53.77
76857;DHT22;66179;44.686;37.628;2023-04-09T13:08:18;18.88;54.15
76857;DHT22;66179;44.686;37.628;2023-04-09T13:10:51;18.83;53.23
76857;DHT22;66179;44.686;37.628;2023-04-09T13:13:23;18.86;53.92
76857;DHT22;66179;44.686;37.628;2023-04-09T13:15:55;18.73;53.71
76857;DHT22;66179;44.686;37.628;2023-04-09T13:18:27;18.48;54.84
76857;DHT22;66179;44.686;37.628;2023-04-09T13:20:59;18.33;54.76
76857;DHT22;66179;44.686;37.628;2023-04-09T13:23:31;18.22;54.78
76857;DHT22;66179;44.686;37.628;2023-04-09T13:26:03;18.04;56.14
76857;DHT22;66179;44.686;37.628;2023-04-09T13:28:35;18.24;54.68
76857;DHT22;66179;44.686;37.628;2023-04-09T13:31:07;18.12;55.10
76857;DHT22;66179;44.686;37.628;2023-04-09T13:33:39;17.95;53.84
76857;DHT22;66179;44.686;37.628;2023-04-09T13:36:11;17.78;55.21
76857;DHT22;66179;44.686;37.628;2023-04-09T13:38:43;17.43;54.20
76857;DHT22;66179;44.686;37.628;2023-04-09T13:41:14;17.19;55.93
76857;DHT22;66179;44.686;37.628;2023-04-09T13:43:46;17.24;55.89
76857;DHT22;66179;44.686;37.628;2023-04-09T13:46:18;17.28;56.92
76857;DHT22;66179;44.686;37.628;2023-04-09T13:48:50;17.11;58.80
76857;DHT22;66179;44.686;37.628;2023-04-09T13:51:22;16.88;58.27
76857;DHT22;66179;44.686;37.628;2023-04-09T13:53:54;16.86;57.73
76857;DHT22;66179;44.686;37.628;2023-04-09T13:56:27;16.63;58.43
76857;DHT22;66179;44.686;37.628;2023-04-09T13:58:59;16.60;57.27
76857;DHT22;66179;44.686;37.628;2023-04-09T14:01:31;16.50;58.96
76857;DHT22;66179;44.686;37.628;2023-04-09T14:04:03;16.45;60.44
76857;DHT22;66179;44.686;37.628;2023-04-09T14:06:34;16.20;61.87
76857;DHT22;66179;44.686;37.628;2023-04-09T14:09:07;16.08;61.92
76857;DHT22;66179;44.686;37.628;2023-04-09T14:11:39;16.04;60.41
76857;DHT22;66179;44.686;37.628;2023-04-09T14:14:11;16.04;61.50
76857;DHT22;66179;44.686;37.628;2023-04-09T14:16:42;16.02;60.02
76857;DHT22;66179;44.686;37.628;2023-04-09T14:19:14;16.03;59.70
76857;DHT22;66179;44.686;37.628;2023-04-09T14:21:46;16.11;60.02
76857;DHT22;66179;44.686;37.628;2023-04-09T14:24:18;15.89;60.86
76857;DHT22;66179;44.686;37.628;2023-04-09T14:26:53;15.82;61.97
76857;DHT22;66179;44.686;37.628;2023-04-09T14:29:25;15.62;63.50
76857;DHT22;66179;44.686;37.628;2023-04-09T14:31:56;15.54;63.74
76857;DHT22;66179;44.686;37.628;2023-04-09T14:34:29;15.43;64.52
76857;DHT22;66179;44.686;37.628;2023-04-09T14:37:01;15.52;63.21
76857;DHT22;66179;44.686;37.628;2023-04-09T14:39:33;15.57;63.52
76857;DHT22;66179;44.686;37.628;2023-04-09T14:42:05;15.56;63.57
76857;DHT22;66179;44.686;37.628;2023-04-09T14:44:37;15.61;63.51
76857;DHT22;66179;44.686;37.628;2023-04-09T14:47:09;15.66;63.53
76857;DHT22;66179;44.686;37.628;2023-04-09T14:49:41;15.71;62.89
76857;DHT22;66179;44.686;37.628;2023-04-09T14:52:13;15.57;64.64
76857;DHT22;66179;44.686;37.628;2023-04-09T14:54:44;15.54;64.62
76857;DHT22;66179;44.686;37.628;2023-04-09T14:57:16;15.70;64.79
76857;DHT22;66179;44.686;37.628;2023-04-09T14:59:48;16.05;62.64
76857;DHT22;66179;44.686;37.628;2023-04-09T15:02:25;15.87;63.40
76857;DHT22;66179;44.686;37.628;2023-04-09T15:04:57;15.85;62.87
76857;DHT22;66179;44.686;37.628;2023-04-09T15:07:29;15.76;64.23
76857;DHT22;66179;44.686;37.628;2023-04-09T15:10:01;15.77;63.41
76857;DHT22;66179;44.686;37.628;2023-04-09T15:12:33;15.90;63.27
76857;DHT22;66179;44.686;37.628;2023-04-09T15:15:06;15.76;65.19
76857;DHT22;66179;44.686;37.628;2023-04-09T15:17:38;15.74;63.50
76857;DHT22;66179;44.686;37.628;2023-04-09T15:20:10;15.73;63.29
76857;DHT22;66179;44.686;37.628;2023-04-09T15:22:44;15.67;63.79
76857;DHT22;66179;44.686;37.628;2023-04-09T15:25:15;15.53;66.05
76857;DHT22;66179;44.686;37.628;2023-04-09T15:27:48;15.49;65.81
76857;DHT22;66179;44.686;37.628;2023-04-09T15:30:20;15.28;65.82
76857;DHT22;66179;44.686;37.628;2023-04-09T15:32:52;15.32;66.86
76857;DHT22;66179;44.686;37.628;2023-04-09T15:35:24;15.18;67.08
76857;DHT22;66179;44.686;37.628;2023-04-09T15:37:59;14.94;68.01
76857;DHT22;66179;44.686;37.628;2023-04-09T15:40:31;14.91;68.26
76857;DHT22;66179;44.686;37.628;2023-04-09T15:43:03;14.72;69.95
76857;DHT22;66179;44.686;37.628;2023-04-09T15:45:34;14.65;70.42
76857;DHT22;66179;44.686;37.628;2023-04-09T15:48:07;14.36;71.35
76857;DHT22;66179;44.686;37.628;2023-04-09T15:50:39;14.44;71.65
76857;DHT22;66179;44.686;37.628;2023-04-09T15:53:13;14.17;72.04
76857;DHT22;66179;44.686;37.628;2023-04-09T15:55:46;14.08;71.29
76857;DHT22;66179;44.686;37.628;2023-04-09T15:58:19;14.07;72.35
76857;DHT22;66179;44.686;37.628;2023-04-09T16:00:52;13.95;73.03
76857;DHT22;66179;44.686;37.628;2023-04-09T16:03:25;13.85;73.03
76857;DHT22;66179;44.686;37.628;2023-04-09T16:05:56;13.85;73.28
76857;DHT22;66179;44.686;37.628;2023-04-09T16:08:33;13.78;73.90
76857;DHT22;66179;44.686;37.628;2023-04-09T16:11:05;13.74;73.44
76857;DHT22;66179;44.686;37.628;2023-04-09T16:13:37;13.67;74.21
76857;DHT22;66179;44.686;37.628;2023-04-09T16:16:09;13.63;74.35
76857;DHT22;66179;44.686;37.628;2023-04-09T16:18:41;13.53;74.69